Terminal Aerodrome Forecast
Issued by NWS

Current Version | Previous Version | Graphics & Text | Print | Product List | Glossary On
Versions: 1 2 3 4 5 6 7 8 9 10 11 12 13 14 15 16 17 18 19 20 21 22
000
FTUS41 KRLX 241300 AAA
TAFCKB
TAF AMD
KCKB 241300Z 2413/2512 21004KT P6SM BKN009
     FM241400 24003KT P6SM SCT010
     FM241500 25005KT P6SM SCT050
     FM241700 26008KT P6SM BKN050
     FM242300 30005KT P6SM SCT250
     FM250600 34003KT P6SM VCFG SCT010=

USA.gov is the U.S. government's official web portal to all federal, state and local government web resources and services.